sensor_id;sensor_type;location;lat;lon;timestamp;pressure;altitude;pressure_sealevel;temperature;humidity
31082;BME280;17737;52.586;13.284;2023-08-06T00:00:29;100390.63;;;19.13;100.00
31082;BME280;17737;52.586;13.284;2023-08-06T00:02:58;100395.56;;;19.22;100.00
31082;BME280;17737;52.586;13.284;2023-08-06T00:05:27;100393.41;;;19.24;100.00
31082;BME280;17737;52.586;13.284;2023-08-06T00:07:55;100398.72;;;19.19;100.00
31082;BME280;17737;52.586;13.284;2023-08-06T00:10:23;100400.72;;;19.12;100.00
31082;BME280;17737;52.586;13.284;2023-08-06T00:12:51;100394.34;;;19.18;100.00
31082;BME280;17737;52.586;13.284;2023-08-06T00:15:19;100389.34;;;19.45;100.00
31082;BME280;17737;52.586;13.284;2023-08-06T00:17:49;100390.28;;;19.09;100.00
31082;BME280;17737;52.586;13.284;2023-08-06T00:20:17;100391.06;;;18.98;100.00
31082;BME280;17737;52.586;13.284;2023-08-06T00:22:45;100391.69;;;19.00;100.00
31082;BME280;17737;52.586;13.284;2023-08-06T00:25:13;100380.38;;;18.96;100.00
31082;BME280;17737;52.586;13.284;2023-08-06T00:27:41;100369.53;;;18.90;100.00
31082;BME280;17737;52.586;13.284;2023-08-06T00:30:10;100375.59;;;18.92;100.00
31082;BME280;17737;52.586;13.284;2023-08-06T00:32:38;100377.59;;;18.85;100.00
31082;BME280;17737;52.586;13.284;2023-08-06T00:35:08;100375.94;;;18.84;100.00
31082;BME280;17737;52.586;13.284;2023-08-06T00:37:36;100373.56;;;18.87;100.00
31082;BME280;17737;52.586;13.284;2023-08-06T00:40:06;100375.13;;;18.95;100.00
31082;BME280;17737;52.586;13.284;2023-08-06T00:42:34;100369.75;;;19.06;100.00
31082;BME280;17737;52.586;13.284;2023-08-06T00:45:03;100373.59;;;18.99;100.00
31082;BME280;17737;52.586;13.284;2023-08-06T00:47:32;100377.66;;;18.96;100.00
31082;BME280;17737;52.586;13.284;2023-08-06T00:50:00;100371.81;;;18.93;100.00
31082;BME280;17737;52.586;13.284;2023-08-06T00:52:30;100367.41;;;18.92;100.00
31082;BME280;17737;52.586;13.284;2023-08-06T00:54:58;100370.75;;;18.94;100.00
31082;BME280;17737;52.586;13.284;2023-08-06T00:57:27;100370.28;;;18.97;100.00
31082;BME280;17737;52.586;13.284;2023-08-06T00:59:55;100367.78;;;18.95;100.00
31082;BME280;17737;52.586;13.284;2023-08-06T01:02:23;100364.56;;;18.98;100.00
31082;BME280;17737;52.586;13.284;2023-08-06T01:04:51;100357.09;;;18.94;100.00
31082;BME280;17737;52.586;13.284;2023-08-06T01:07:29;100354.09;;;19.14;100.00
31082;BME280;17737;52.586;13.284;2023-08-06T01:10:22;100358.44;;;19.03;100.00
31082;BME280;17737;52.586;13.284;2023-08-06T01:13:04;100349.84;;;18.88;100.00
31082;BME280;17737;52.586;13.284;2023-08-06T01:15:43;100349.72;;;18.83;100.00
31082;BME280;17737;52.586;13.284;2023-08-06T01:18:16;100356.22;;;18.82;100.00
31082;BME280;17737;52.586;13.284;2023-08-06T01:20:49;100348.06;;;18.93;100.00
31082;BME280;17737;52.586;13.284;2023-08-06T01:23:18;100348.13;;;18.75;100.00
31082;BME280;17737;52.586;13.284;2023-08-06T01:25:53;100338.47;;;18.73;100.00
31082;BME280;17737;52.586;13.284;2023-08-06T01:28:35;100344.41;;;18.70;100.00
31082;BME280;17737;52.586;13.284;2023-08-06T01:31:26;100339.19;;;18.68;100.00
31082;BME280;17737;52.586;13.284;2023-08-06T01:33:58;100333.81;;;18.62;100.00
31082;BME280;17737;52.586;13.284;2023-08-06T01:36:30;100325.63;;;18.62;100.00
31082;BME280;17737;52.586;13.284;2023-08-06T01:38:59;100327.75;;;18.60;100.00
31082;BME280;17737;52.586;13.284;2023-08-06T01:41:27;100319.03;;;18.69;100.00
31082;BME280;17737;52.586;13.284;2023-08-06T01:43:55;100321.69;;;18.58;100.00
31082;BME280;17737;52.586;13.284;2023-08-06T01:46:23;100318.16;;;18.57;100.00
31082;BME280;17737;52.586;13.284;2023-08-06T01:48:51;100313.84;;;18.50;100.00
31082;BME280;17737;52.586;13.284;2023-08-06T01:51:19;100307.31;;;18.51;100.00
31082;BME280;17737;52.586;13.284;2023-08-06T01:53:48;100305.78;;;18.55;100.00
31082;BME280;17737;52.586;13.284;2023-08-06T01:56:16;100304.56;;;18.51;100.00
31082;BME280;17737;52.586;13.284;2023-08-06T01:58:45;100307.53;;;18.49;100.00
31082;BME280;17737;52.586;13.284;2023-08-06T02:01:13;100300.19;;;18.50;100.00
31082;BME280;17737;52.586;13.284;2023-08-06T02:03:41;100305.09;;;18.59;100.00
31082;BME280;17737;52.586;13.284;2023-08-06T02:06:09;100300.31;;;18.55;100.00
31082;BME280;17737;52.586;13.284;2023-08-06T02:08:37;100301.16;;;18.55;100.00
31082;BME280;17737;52.586;13.284;2023-08-06T02:11:07;100297.94;;;18.47;100.00
31082;BME280;17737;52.586;13.284;2023-08-06T02:13:35;100299.81;;;18.46;100.00
31082;BME280;17737;52.586;13.284;2023-08-06T02:16:03;100296.25;;;18.46;100.00
31082;BME280;17737;52.586;13.284;2023-08-06T02:18:34;100295.47;;;18.39;100.00
31082;BME280;17737;52.586;13.284;2023-08-06T02:21:02;100295.06;;;18.42;100.00
31082;BME280;17737;52.586;13.284;2023-08-06T02:23:30;100289.75;;;18.47;100.00
31082;BME280;17737;52.586;13.284;2023-08-06T02:25:59;100293.13;;;18.42;100.00
31082;BME280;17737;52.586;13.284;2023-08-06T02:28:29;100286.91;;;18.53;100.00
31082;BME280;17737;52.586;13.284;2023-08-06T02:30:57;100297.94;;;18.47;100.00
31082;BME280;17737;52.586;13.284;2023-08-06T02:33:26;100281.34;;;18.89;100.00
31082;BME280;17737;52.586;13.284;2023-08-06T02:35:59;100287.19;;;18.93;100.00
31082;BME280;17737;52.586;13.284;2023-08-06T02:38:28;100280.13;;;18.44;100.00
31082;BME280;17737;52.586;13.284;2023-08-06T02:40:56;100287.16;;;18.52;100.00
31082;BME280;17737;52.586;13.284;2023-08-06T02:43:24;100282.00;;;18.26;100.00
31082;BME280;17737;52.586;13.284;2023-08-06T02:45:56;100276.19;;;18.22;100.00
31082;BME280;17737;52.586;13.284;2023-08-06T02:48:25;100272.84;;;18.20;100.00
31082;BME280;17737;52.586;13.284;2023-08-06T02:50:57;100265.59;;;18.62;100.00
31082;BME280;17737;52.586;13.284;2023-08-06T02:53:26;100257.38;;;18.32;100.00
31082;BME280;17737;52.586;13.284;2023-08-06T02:55:54;100253.38;;;18.17;100.00
31082;BME280;17737;52.586;13.284;2023-08-06T02:58:23;100264.38;;;18.10;100.00
31082;BME280;17737;52.586;13.284;2023-08-06T03:01:02;100259.88;;;18.34;100.00
31082;BME280;17737;52.586;13.284;2023-08-06T03:03:32;100257.63;;;18.13;100.00
31082;BME280;17737;52.586;13.284;2023-08-06T03:06:03;100260.22;;;18.08;100.00
31082;BME280;17737;52.586;13.284;2023-08-06T03:08:32;100255.66;;;18.02;100.00
31082;BME280;17737;52.586;13.284;2023-08-06T03:11:00;100264.06;;;18.00;100.00
31082;BME280;17737;52.586;13.284;2023-08-06T03:13:28;100262.44;;;17.99;100.00
31082;BME280;17737;52.586;13.284;2023-08-06T03:15:57;100254.47;;;17.98;100.00
31082;BME280;17737;52.586;13.284;2023-08-06T03:18:28;100264.00;;;17.88;100.00
31082;BME280;17737;52.586;13.284;2023-08-06T03:20:56;100257.56;;;17.83;100.00
31082;BME280;17737;52.586;13.284;2023-08-06T03:23:24;100252.13;;;17.83;100.00
31082;BME280;17737;52.586;13.284;2023-08-06T03:25:52;100251.88;;;17.84;100.00
31082;BME280;17737;52.586;13.284;2023-08-06T03:28:20;100254.63;;;17.84;100.00
31082;BME280;17737;52.586;13.284;2023-08-06T03:30:58;100249.63;;;17.81;100.00
31082;BME280;17737;52.586;13.284;2023-08-06T03:33:29;100249.63;;;17.81;100.00
31082;BME280;17737;52.586;13.284;2023-08-06T03:35:57;100246.59;;;17.71;100.00
31082;BME280;17737;52.586;13.284;2023-08-06T03:38:25;100240.53;;;17.69;100.00
31082;BME280;17737;52.586;13.284;2023-08-06T03:40:54;100243.25;;;17.69;100.00
31082;BME280;17737;52.586;13.284;2023-08-06T03:43:22;100240.16;;;17.66;100.00
31082;BME280;17737;52.586;13.284;2023-08-06T03:45:50;100234.34;;;17.80;100.00
31082;BME280;17737;52.586;13.284;2023-08-06T03:48:18;100232.06;;;17.59;100.00
31082;BME280;17737;52.586;13.284;2023-08-06T03:50:47;100229.78;;;17.56;100.00
31082;BME280;17737;52.586;13.284;2023-08-06T03:53:15;100222.72;;;17.49;100.00
31082;BME280;17737;52.586;13.284;2023-08-06T03:55:43;100225.25;;;17.44;100.00
31082;BME280;17737;52.586;13.284;2023-08-06T03:58:11;100226.56;;;17.41;100.00
31082;BME280;17737;52.586;13.284;2023-08-06T04:00:39;100228.53;;;17.34;100.00
31082;BME280;17737;52.586;13.284;2023-08-06T04:03:07;100216.16;;;17.56;100.00
31082;BME280;17737;52.586;13.284;2023-08-06T04:05:35;100213.91;;;17.53;100.00
31082;BME280;17737;52.586;13.284;2023-08-06T04:08:04;100206.38;;;17.49;100.00
31082;BME280;17737;52.586;13.284;2023-08-06T04:10:33;100208.31;;;17.48;100.00
31082;BME280;17737;52.586;13.284;2023-08-06T04:13:00;100205.13;;;17.51;100.00
31082;BME280;17737;52.586;13.284;2023-08-06T04:15:28;100204.28;;;17.51;100.00
31082;BME280;17737;52.586;13.284;2023-08-06T04:17:56;100205.00;;;17.40;100.00
31082;BME280;17737;52.586;13.284;2023-08-06T04:20:24;100197.03;;;17.38;100.00
31082;BME280;17737;52.586;13.284;2023-08-06T04:22:54;100200.59;;;17.39;100.00
31082;BME280;17737;52.586;13.284;2023-08-06T04:25:24;100196.22;;;17.38;100.00
31082;BME280;17737;52.586;13.284;2023-08-06T04:27:52;100196.03;;;17.75;100.00
31082;BME280;17737;52.586;13.284;2023-08-06T04:30:20;100196.31;;;17.67;100.00
31082;BME280;17737;52.586;13.284;2023-08-06T04:32:49;100189.84;;;17.44;100.00
31082;BME280;17737;52.586;13.284;2023-08-06T04:35:18;100191.28;;;17.53;100.00
31082;BME280;17737;52.586;13.284;2023-08-06T04:37:46;100188.81;;;17.45;100.00
31082;BME280;17737;52.586;13.284;2023-08-06T04:40:14;100182.28;;;17.70;100.00
31082;BME280;17737;52.586;13.284;2023-08-06T04:42:43;100187.19;;;17.62;100.00
31082;BME280;17737;52.586;13.284;2023-08-06T04:45:11;100179.16;;;17.49;100.00
31082;BME280;17737;52.586;13.284;2023-08-06T04:47:39;100172.06;;;17.48;100.00
31082;BME280;17737;52.586;13.284;2023-08-06T04:50:07;100172.31;;;17.40;100.00
31082;BME280;17737;52.586;13.284;2023-08-06T04:52:37;100164.16;;;17.40;100.00
31082;BME280;17737;52.586;13.284;2023-08-06T04:55:05;100163.28;;;17.46;100.00
31082;BME280;17737;52.586;13.284;2023-08-06T04:57:34;100170.16;;;17.48;100.00
31082;BME280;17737;52.586;13.284;2023-08-06T05:00:04;100164.72;;;17.48;100.00
31082;BME280;17737;52.586;13.284;2023-08-06T05:02:33;100162.44;;;17.63;100.00
31082;BME280;17737;52.586;13.284;2023-08-06T05:05:04;100158.03;;;17.62;100.00
31082;BME280;17737;52.586;13.284;2023-08-06T05:07:33;100154.66;;;17.67;100.00
31082;BME280;17737;52.586;13.284;2023-08-06T05:10:01;100155.84;;;17.71;100.00
31082;BME280;17737;52.586;13.284;2023-08-06T05:12:30;100157.13;;;17.68;100.00
31082;BME280;17737;52.586;13.284;2023-08-06T05:14:58;100154.28;;;17.63;100.00
31082;BME280;17737;52.586;13.284;2023-08-06T05:17:28;100152.34;;;17.64;100.00
31082;BME280;17737;52.586;13.284;2023-08-06T05:19:56;100145.41;;;17.68;100.00
31082;BME280;17737;52.586;13.284;2023-08-06T05:22:24;100146.09;;;17.63;100.00
31082;BME280;17737;52.586;13.284;2023-08-06T05:24:52;100139.13;;;17.67;100.00
31082;BME280;17737;52.586;13.284;2023-08-06T05:27:20;100132.25;;;17.65;100.00
31082;BME280;17737;52.586;13.284;2023-08-06T05:29:48;100127.50;;;17.60;100.00
31082;BME280;17737;52.586;13.284;2023-08-06T05:32:16;100128.22;;;17.67;100.00
31082;BME280;17737;52.586;13.284;2023-08-06T05:34:45;100125.19;;;17.75;100.00
31082;BME280;17737;52.586;13.284;2023-08-06T05:37:13;100126.38;;;17.79;100.00
31082;BME280;17737;52.586;13.284;2023-08-06T05:39:41;100114.72;;;17.90;100.00
31082;BME280;17737;52.586;13.284;2023-08-06T05:42:09;100124.88;;;17.83;100.00
31082;BME280;17737;52.586;13.284;2023-08-06T05:44:37;100120.31;;;17.77;100.00
31082;BME280;17737;52.586;13.284;2023-08-06T05:47:05;100113.84;;;17.78;100.00
31082;BME280;17737;52.586;13.284;2023-08-06T05:49:33;100120.78;;;17.92;100.00
31082;BME280;17737;52.586;13.284;2023-08-06T05:52:04;100127.59;;;17.83;100.00
31082;BME280;17737;52.586;13.284;2023-08-06T05:54:33;100121.44;;;17.88;100.00
31082;BME280;17737;52.586;13.284;2023-08-06T05:57:01;100112.59;;;17.92;100.00
31082;BME280;17737;52.586;13.284;2023-08-06T05:59:29;100122.28;;;17.88;100.00
31082;BME280;17737;52.586;13.284;2023-08-06T06:01:57;100117.81;;;17.94;100.00
31082;BME280;17737;52.586;13.284;2023-08-06T06:04:25;100116.97;;;17.93;100.00
31082;BME280;17737;52.586;13.284;2023-08-06T06:06:53;100116.06;;;18.00;100.00
31082;BME280;17737;52.586;13.284;2023-08-06T06:09:22;100114.38;;;17.99;100.00
31082;BME280;17737;52.586;13.284;2023-08-06T06:11:51;100108.97;;;18.10;100.00
31082;BME280;17737;52.586;13.284;2023-08-06T06:14:19;100106.81;;;18.01;100.00
31082;BME280;17737;52.586;13.284;2023-08-06T06:16:50;100105.16;;;18.00;100.00
31082;BME280;17737;52.586;13.284;2023-08-06T06:19:19;100099.34;;;17.96;100.00
31082;BME280;17737;52.586;13.284;2023-08-06T06:21:47;100101.16;;;18.14;100.00
31082;BME280;17737;52.586;13.284;2023-08-06T06:24:15;100097.75;;;18.18;100.00
31082;BME280;17737;52.586;13.284;2023-08-06T06:26:44;100095.66;;;18.32;100.00
31082;BME280;17737;52.586;13.284;2023-08-06T06:29:13;100088.38;;;18.26;100.00
31082;BME280;17737;52.586;13.284;2023-08-06T06:31:41;100088.47;;;18.08;100.00
31082;BME280;17737;52.586;13.284;2023-08-06T06:34:09;100084.28;;;18.05;100.00
31082;BME280;17737;52.586;13.284;2023-08-06T06:36:37;100088.84;;;18.11;100.00
31082;BME280;17737;52.586;13.284;2023-08-06T06:39:05;100083.69;;;18.03;100.00
31082;BME280;17737;52.586;13.284;2023-08-06T06:41:33;100094.72;;;18.08;100.00
31082;BME280;17737;52.586;13.284;2023-08-06T06:44:02;100090.84;;;18.16;100.00
31082;BME280;17737;52.586;13.284;2023-08-06T06:46:30;100086.47;;;18.15;100.00
31082;BME280;17737;52.586;13.284;2023-08-06T06:48:58;100086.72;;;18.25;100.00
31082;BME280;17737;52.586;13.284;2023-08-06T06:51:27;100086.97;;;18.23;100.00
31082;BME280;17737;52.586;13.284;2023-08-06T06:53:55;100080.44;;;18.36;100.00
31082;BME280;17737;52.586;13.284;2023-08-06T06:56:23;100084.38;;;18.28;100.00
31082;BME280;17737;52.586;13.284;2023-08-06T06:58:51;100076.00;;;18.41;100.00
31082;BME280;17737;52.586;13.284;2023-08-06T07:01:20;100080.81;;;18.28;100.00
31082;BME280;17737;52.586;13.284;2023-08-06T07:03:48;100086.63;;;18.31;100.00
31082;BME280;17737;52.586;13.284;2023-08-06T07:06:16;100082.31;;;18.12;100.00
31082;BME280;17737;52.586;13.284;2023-08-06T07:08:44;100083.69;;;18.03;100.00
31082;BME280;17737;52.586;13.284;2023-08-06T07:11:13;100086.66;;;18.02;100.00
31082;BME280;17737;52.586;13.284;2023-08-06T07:13:41;100089.69;;;18.23;100.00
31082;BME280;17737;52.586;13.284;2023-08-06T07:16:09;100091.66;;;18.05;100.00
31082;BME280;17737;52.586;13.284;2023-08-06T07:18:38;100089.50;;;18.07;100.00
31082;BME280;17737;52.586;13.284;2023-08-06T07:21:06;100090.81;;;18.04;100.00
31082;BME280;17737;52.586;13.284;2023-08-06T07:23:34;100089.63;;;18.00;100.00
31082;BME280;17737;52.586;13.284;2023-08-06T07:26:02;100079.44;;;18.07;100.00
31082;BME280;17737;52.586;13.284;2023-08-06T07:28:30;100091.19;;;18.08;100.00
31082;BME280;17737;52.586;13.284;2023-08-06T07:30:58;100094.41;;;18.16;100.00
31082;BME280;17737;52.586;13.284;2023-08-06T07:33:26;100095.22;;;18.17;100.00
31082;BME280;17737;52.586;13.284;2023-08-06T07:35:56;100088.13;;;18.57;100.00
31082;BME280;17737;52.586;13.284;2023-08-06T07:38:24;100074.69;;;18.90;100.00
31082;BME280;17737;52.586;13.284;2023-08-06T07:40:52;100080.41;;;18.77;100.00
31082;BME280;17737;52.586;13.284;2023-08-06T07:43:20;100091.31;;;18.77;100.00
31082;BME280;17737;52.586;13.284;2023-08-06T07:45:48;100086.69;;;18.89;100.00
31082;BME280;17737;52.586;13.284;2023-08-06T07:48:16;100080.19;;;19.01;100.00
31082;BME280;17737;52.586;13.284;2023-08-06T07:50:44;100082.03;;;19.13;100.00
31082;BME280;17737;52.586;13.284;2023-08-06T07:53:18;100082.31;;;18.99;100.00
31082;BME280;17737;52.586;13.284;2023-08-06T07:55:49;100073.16;;;19.05;100.00
31082;BME280;17737;52.586;13.284;2023-08-06T07:58:19;100078.97;;;19.09;100.00
31082;BME280;17737;52.586;13.284;2023-08-06T08:00:47;100069.94;;;19.20;100.00
31082;BME280;17737;52.586;13.284;2023-08-06T08:03:16;100083.13;;;19.12;100.00
31082;BME280;17737;52.586;13.284;2023-08-06T08:05:44;100067.78;;;19.10;100.00
31082;BME280;17737;52.586;13.284;2023-08-06T08:08:12;100069.25;;;19.01;100.00
31082;BME280;17737;52.586;13.284;2023-08-06T08:10:42;100076.72;;;18.94;100.00
31082;BME280;17737;52.586;13.284;2023-08-06T08:13:10;100072.69;;;18.97;100.00
31082;BME280;17737;52.586;13.284;2023-08-06T08:15:38;100074.25;;;18.93;100.00
31082;BME280;17737;52.586;13.284;2023-08-06T08:18:06;100067.94;;;19.04;100.00
31082;BME280;17737;52.586;13.284;2023-08-06T08:20:34;100066.75;;;19.12;100.00
31082;BME280;17737;52.586;13.284;2023-08-06T08:23:02;100064.72;;;19.07;100.00
31082;BME280;17737;52.586;13.284;2023-08-06T08:25:30;100057.84;;;19.04;100.00
31082;BME280;17737;52.586;13.284;2023-08-06T08:28:01;100055.19;;;19.21;100.00
31082;BME280;17737;52.586;13.284;2023-08-06T08:30:29;100052.06;;;19.29;100.00
31082;BME280;17737;52.586;13.284;2023-08-06T08:32:57;100050.44;;;19.28;100.00
31082;BME280;17737;52.586;13.284;2023-08-06T08:35:25;100042.38;;;19.33;100.00
31082;BME280;17737;52.586;13.284;2023-08-06T08:37:53;100045.22;;;19.38;100.00
31082;BME280;17737;52.586;13.284;2023-08-06T08:40:24;100041.16;;;19.29;100.00
31082;BME280;17737;52.586;13.284;2023-08-06T08:42:59;100035.97;;;19.16;100.00
31082;BME280;17737;52.586;13.284;2023-08-06T08:45:29;100037.91;;;19.04;100.00
31082;BME280;17737;52.586;13.284;2023-08-06T08:48:01;100035.88;;;19.11;100.00
31082;BME280;17737;52.586;13.284;2023-08-06T08:50:30;100035.75;;;19.06;100.00
31082;BME280;17737;52.586;13.284;2023-08-06T08:52:58;100032.81;;;18.96;100.00
31082;BME280;17737;52.586;13.284;2023-08-06T08:55:27;100025.09;;;18.81;100.00
31082;BME280;17737;52.586;13.284;2023-08-06T08:57:56;100018.66;;;18.99;100.00
31082;BME280;17737;52.586;13.284;2023-08-06T09:00:24;100020.59;;;18.87;100.00
31082;BME280;17737;52.586;13.284;2023-08-06T09:02:54;100023.47;;;18.69;100.00
31082;BME280;17737;52.586;13.284;2023-08-06T09:05:26;100021.22;;;18.77;100.00
31082;BME280;17737;52.586;13.284;2023-08-06T09:08:02;100011.34;;;18.65;100.00
31082;BME280;17737;52.586;13.284;2023-08-06T09:10:32;100012.41;;;18.75;100.00
31082;BME280;17737;52.586;13.284;2023-08-06T09:13:02;100011.59;;;18.75;100.00
31082;BME280;17737;52.586;13.284;2023-08-06T09:15:31;100006.13;;;18.75;100.00
31082;BME280;17737;52.586;13.284;2023-08-06T09:18:09;100005.28;;;18.86;100.00
31082;BME280;17737;52.586;13.284;2023-08-06T09:20:38;99999.38;;;18.77;100.00
31082;BME280;17737;52.586;13.284;2023-08-06T09:23:07;99993.31;;;18.75;100.00
31082;BME280;17737;52.586;13.284;2023-08-06T09:25:38;100002.44;;;18.92;100.00
31082;BME280;17737;52.586;13.284;2023-08-06T09:28:07;99993.50;;;18.97;100.00
31082;BME280;17737;52.586;13.284;2023-08-06T09:30:37;99990.56;;;18.87;100.00
31082;BME280;17737;52.586;13.284;2023-08-06T09:33:09;99996.41;;;18.79;100.00
31082;BME280;17737;52.586;13.284;2023-08-06T09:35:38;99991.44;;;18.76;100.00
31082;BME280;17737;52.586;13.284;2023-08-06T09:38:06;99986.09;;;18.69;100.00
31082;BME280;17737;52.586;13.284;2023-08-06T09:40:36;99985.16;;;18.64;100.00
31082;BME280;17737;52.586;13.284;2023-08-06T09:43:05;99981.34;;;18.53;100.00
31082;BME280;17737;52.586;13.284;2023-08-06T09:45:35;99981.59;;;18.52;100.00
31082;BME280;17737;52.586;13.284;2023-08-06T09:48:05;99980.53;;;18.53;100.00
31082;BME280;17737;52.586;13.284;2023-08-06T09:50:38;99975.31;;;18.40;100.00
31082;BME280;17737;52.586;13.284;2023-08-06T09:53:08;99981.44;;;18.24;100.00
31082;BME280;17737;52.586;13.284;2023-08-06T09:55:36;99973.84;;;18.26;100.00
31082;BME280;17737;52.586;13.284;2023-08-06T09:58:06;99974.56;;;18.33;100.00
31082;BME280;17737;52.586;13.284;2023-08-06T10:00:34;99970.69;;;18.40;100.00
31082;BME280;17737;52.586;13.284;2023-08-06T10:03:06;99973.28;;;18.58;100.00
31082;BME280;17737;52.586;13.284;2023-08-06T10:05:38;99966.38;;;18.56;100.00
31082;BME280;17737;52.586;13.284;2023-08-06T10:08:07;99971.06;;;18.44;100.00
31082;BME280;17737;52.586;13.284;2023-08-06T10:10:36;99967.13;;;18.51;100.00
31082;BME280;17737;52.586;13.284;2023-08-06T10:13:05;99964.00;;;18.36;100.00
31082;BME280;17737;52.586;13.284;2023-08-06T10:15:36;99964.63;;;18.50;100.00
31082;BME280;17737;52.586;13.284;2023-08-06T10:18:06;99967.47;;;18.32;100.00
31082;BME280;17737;52.586;13.284;2023-08-06T10:20:39;99964.13;;;18.30;100.00
31082;BME280;17737;52.586;13.284;2023-08-06T10:23:07;99952.75;;;18.33;100.00
31082;BME280;17737;52.586;13.284;2023-08-06T10:25:39;99951.47;;;18.47;100.00
31082;BME280;17737;52.586;13.284;2023-08-06T10:28:09;99953.09;;;18.59;100.00
31082;BME280;17737;52.586;13.284;2023-08-06T10:30:44;99955.13;;;18.64;100.00
31082;BME280;17737;52.586;13.284;2023-08-06T10:33:13;99945.06;;;18.53;100.00
31082;BME280;17737;52.586;13.284;2023-08-06T10:35:44;99947.78;;;18.53;100.00
31082;BME280;17737;52.586;13.284;2023-08-06T10:38:17;99955.34;;;18.74;100.00
31082;BME280;17737;52.586;13.284;2023-08-06T10:40:49;99948.47;;;18.83;100.00
31082;BME280;17737;52.586;13.284;2023-08-06T10:43:29;99944.31;;;18.80;100.00
31082;BME280;17737;52.586;13.284;2023-08-06T10:46:00;99940.84;;;18.96;100.00
31082;BME280;17737;52.586;13.284;2023-08-06T10:48:33;99937.97;;;19.03;100.00
31082;BME280;17737;52.586;13.284;2023-08-06T10:51:07;99937.50;;;18.94;100.00
31082;BME280;17737;52.586;13.284;2023-08-06T10:53:36;99931.66;;;19.02;100.00
31082;BME280;17737;52.586;13.284;2023-08-06T10:56:12;99927.22;;;19.13;100.00
31082;BME280;17737;52.586;13.284;2023-08-06T10:58:40;99924.75;;;19.12;100.00
31082;BME280;17737;52.586;13.284;2023-08-06T11:01:09;99921.56;;;19.03;100.00
31082;BME280;17737;52.586;13.284;2023-08-06T11:03:38;99915.47;;;19.13;100.00
31082;BME280;17737;52.586;13.284;2023-08-06T11:06:08;99921.03;;;19.18;100.00
31082;BME280;17737;52.586;13.284;2023-08-06T11:08:38;99912.69;;;19.24;100.00
31082;BME280;17737;52.586;13.284;2023-08-06T11:11:15;99920.69;;;19.14;100.00
31082;BME280;17737;52.586;13.284;2023-08-06T11:13:46;99916.16;;;19.20;100.00
31082;BME280;17737;52.586;13.284;2023-08-06T11:16:15;99912.91;;;19.34;100.00
31082;BME280;17737;52.586;13.284;2023-08-06T11:18:44;99895.22;;;19.37;100.00
31082;BME280;17737;52.586;13.284;2023-08-06T11:21:20;99888.84;;;19.20;100.00
31082;BME280;17737;52.586;13.284;2023-08-06T11:23:48;99888.09;;;19.36;100.00
31082;BME280;17737;52.586;13.284;2023-08-06T11:26:19;99891.72;;;19.41;100.00
31082;BME280;17737;52.586;13.284;2023-08-06T11:28:47;99879.84;;;19.47;100.00
31082;BME280;17737;52.586;13.284;2023-08-06T11:31:19;99887.47;;;19.78;100.00
31082;BME280;17737;52.586;13.284;2023-08-06T11:33:47;99874.03;;;19.60;100.00
31082;BME280;17737;52.586;13.284;2023-08-06T11:36:28;99874.28;;;19.42;100.00
31082;BME280;17737;52.586;13.284;2023-08-06T11:38:57;99870.88;;;19.35;100.00
31082;BME280;17737;52.586;13.284;2023-08-06T11:41:27;99870.88;;;19.35;100.00
31082;BME280;17737;52.586;13.284;2023-08-06T11:43:56;99881.22;;;19.33;100.00
31082;BME280;17737;52.586;13.284;2023-08-06T11:46:24;99870.31;;;19.22;100.00
31082;BME280;17737;52.586;13.284;2023-08-06T11:48:53;99871.16;;;19.22;100.00
31082;BME280;17737;52.586;13.284;2023-08-06T11:51:24;99880.72;;;19.08;100.00
31082;BME280;17737;52.586;13.284;2023-08-06T11:53:55;99892.56;;;20.63;100.00
31082;BME280;17737;52.586;13.284;2023-08-06T11:56:25;99894.53;;;18.90;100.00
31082;BME280;17737;52.586;13.284;2023-08-06T11:58:55;99896.31;;;18.45;100.00
31082;BME280;17737;52.586;13.284;2023-08-06T12:01:23;99905.59;;;18.44;100.00
31082;BME280;17737;52.586;13.284;2023-08-06T12:03:51;99909.13;;;18.33;100.00
31082;BME280;17737;52.586;13.284;2023-08-06T12:06:19;99906.16;;;18.46;100.00
31082;BME280;17737;52.586;13.284;2023-08-06T12:08:48;99901.84;;;18.61;100.00
31082;BME280;17737;52.586;13.284;2023-08-06T12:11:21;99901.47;;;18.81;100.00
31082;BME280;17737;52.586;13.284;2023-08-06T12:13:50;99891.78;;;19.01;100.00
31082;BME280;17737;52.586;13.284;2023-08-06T12:16:19;99886.53;;;19.12;100.00
31082;BME280;17737;52.586;13.284;2023-08-06T12:18:48;99885.13;;;19.37;100.00
31082;BME280;17737;52.586;13.284;2023-08-06T12:21:16;99887.28;;;19.24;100.00
31082;BME280;17737;52.586;13.284;2023-08-06T12:23:44;99875.69;;;19.17;100.00
31082;BME280;17737;52.586;13.284;2023-08-06T12:26:13;99873.22;;;19.15;100.00
31082;BME280;17737;52.586;13.284;2023-08-06T12:28:41;99862.97;;;18.94;100.00
31082;BME280;17737;52.586;13.284;2023-08-06T12:31:09;99861.41;;;18.98;100.00
31082;BME280;17737;52.586;13.284;2023-08-06T12:33:37;99859.84;;;19.02;100.00
31082;BME280;17737;52.586;13.284;2023-08-06T12:36:05;99866.47;;;19.06;100.00
31082;BME280;17737;52.586;13.284;2023-08-06T12:38:33;99867.41;;;19.12;100.00
31082;BME280;17737;52.586;13.284;2023-08-06T12:41:01;99848.78;;;19.08;100.00
31082;BME280;17737;52.586;13.284;2023-08-06T12:43:31;99857.97;;;19.19;100.00